createdAt,value
2023-05-15T00:00:06.859Z,0.00
2023-05-15T00:01:06.895Z,0.00
2023-05-15T00:02:06.932Z,0.00
2023-05-15T00:03:07.017Z,0.00
2023-05-15T00:04:06.952Z,0.00
2023-05-15T00:05:07.137Z,0.00
2023-05-15T00:06:07.002Z,0.00
2023-05-15T00:07:07.032Z,0.00
2023-05-15T00:08:07.055Z,0.00
2023-05-15T00:09:07.077Z,0.00
2023-05-15T00:10:07.100Z,0.00
2023-05-15T00:11:07.153Z,0.00
2023-05-15T00:12:07.147Z,0.00
2023-05-15T00:13:07.180Z,0.00
2023-05-15T00:14:07.200Z,0.00
2023-05-15T00:15:07.232Z,0.00
2023-05-15T00:16:07.323Z,0.00
2023-05-15T00:17:07.289Z,0.00
2023-05-15T00:18:07.371Z,0.00
2023-05-15T00:19:07.374Z,0.00
2023-05-15T00:20:07.345Z,0.00
2023-05-15T00:21:07.463Z,0.00
2023-05-15T00:22:07.400Z,0.00
2023-05-15T00:23:07.439Z,0.00
2023-05-15T00:24:07.445Z,0.00
2023-05-15T00:25:07.463Z,0.00
2023-05-15T00:26:07.493Z,0.00
2023-05-15T00:27:07.530Z,0.00
2023-05-15T00:28:07.542Z,0.00
2023-05-15T00:29:07.590Z,0.00
2023-05-15T00:30:07.606Z,0.00
2023-05-15T00:31:07.680Z,0.00
2023-05-15T00:32:07.657Z,0.00
2023-05-15T00:33:07.670Z,0.00
2023-05-15T00:34:07.695Z,0.00
2023-05-15T00:35:07.743Z,0.00
2023-05-15T00:36:07.748Z,0.00
2023-05-15T00:37:07.768Z,0.00
2023-05-15T00:38:07.793Z,0.00
2023-05-15T00:39:07.817Z,0.00
2023-05-15T00:40:07.873Z,0.00
2023-05-15T00:41:07.865Z,0.00
2023-05-15T00:42:07.891Z,0.00
2023-05-15T00:43:07.914Z,0.00
2023-05-15T00:44:07.940Z,0.00
2023-05-15T00:45:07.966Z,0.00
2023-05-15T00:46:07.992Z,0.00
2023-05-15T00:47:08.032Z,0.00
2023-05-15T00:48:08.034Z,0.00
2023-05-15T00:49:08.066Z,0.00
2023-05-15T00:50:08.090Z,0.00
2023-05-15T00:51:08.104Z,0.00
2023-05-15T00:52:08.140Z,0.00
2023-05-15T00:53:08.154Z,0.00
2023-05-15T00:54:08.260Z,0.00
2023-05-15T00:55:08.213Z,0.00
2023-05-15T00:56:08.239Z,0.00
2023-05-15T00:57:08.253Z,0.00
2023-05-15T00:58:08.282Z,0.00
2023-05-15T00:59:08.301Z,0.00
2023-05-15T01:00:08.352Z,0.00
2023-05-15T01:01:08.779Z,0.00
2023-05-15T01:02:08.452Z,0.00
2023-05-15T01:03:08.469Z,0.00
2023-05-15T01:04:08.430Z,0.00
2023-05-15T01:05:08.445Z,0.00
2023-05-15T01:06:08.489Z,0.00
2023-05-15T01:07:08.502Z,0.00
2023-05-15T01:08:08.516Z,0.00
2023-05-15T01:09:08.552Z,0.00
2023-05-15T01:10:08.580Z,0.00
2023-05-15T01:11:08.596Z,0.00
2023-05-15T01:12:08.614Z,0.00
2023-05-15T01:13:08.637Z,0.00
2023-05-15T01:14:08.692Z,0.00
2023-05-15T01:15:08.681Z,0.00
2023-05-15T01:16:08.723Z,0.00
2023-05-15T01:17:08.737Z,0.00
2023-05-15T01:18:08.845Z,0.00
2023-05-15T01:19:08.878Z,0.00
2023-05-15T01:20:08.815Z,0.00
2023-05-15T01:21:08.827Z,0.00
2023-05-15T01:22:08.857Z,0.00
2023-05-15T01:23:08.881Z,0.00
2023-05-15T01:24:08.899Z,0.00
2023-05-15T01:25:08.921Z,0.00
2023-05-15T01:26:08.953Z,0.00
2023-05-15T01:27:08.973Z,0.00
2023-05-15T01:28:08.993Z,0.00
2023-05-15T01:29:09.029Z,0.00
2023-05-15T01:30:09.049Z,0.00
2023-05-15T01:31:09.066Z,0.00
2023-05-15T01:32:09.190Z,0.00
2023-05-15T01:33:09.219Z,0.00
2023-05-15T01:34:09.143Z,0.00
2023-05-15T01:35:09.167Z,0.00
2023-05-15T01:36:09.183Z,0.00
2023-05-15T01:37:09.217Z,0.00
2023-05-15T01:38:09.232Z,0.00
2023-05-15T01:39:09.258Z,0.00
2023-05-15T01:40:09.275Z,0.00
2023-05-15T01:41:09.299Z,0.00
2023-05-15T01:42:09.339Z,0.00
2023-05-15T01:43:09.353Z,0.00
2023-05-15T01:44:09.377Z,0.00
2023-05-15T01:45:09.412Z,0.00
2023-05-15T01:46:09.520Z,0.00
2023-05-15T01:47:09.560Z,0.00
2023-05-15T01:48:09.488Z,0.00
2023-05-15T01:49:09.550Z,0.00
2023-05-15T01:50:09.552Z,0.00
2023-05-15T01:51:09.620Z,0.00
2023-05-15T01:52:09.612Z,0.00
2023-05-15T01:53:09.584Z,0.00
2023-05-15T01:54:09.608Z,0.00
2023-05-15T01:55:09.649Z,0.00
2023-05-15T01:56:09.672Z,0.00
2023-05-15T01:57:09.688Z,0.00
2023-05-15T01:58:09.704Z,0.00
2023-05-15T01:59:09.727Z,0.00
2023-05-15T02:00:09.792Z,0.00
2023-05-15T02:01:09.782Z,0.00
2023-05-15T02:02:09.836Z,0.00
2023-05-15T02:03:09.962Z,0.00
2023-05-15T02:04:09.866Z,0.00
2023-05-15T02:05:09.868Z,0.00
2023-05-15T02:06:09.888Z,0.00
2023-05-15T02:07:09.913Z,0.00
2023-05-15T02:08:09.941Z,0.00
2023-05-15T02:09:09.964Z,0.00
2023-05-15T02:10:09.987Z,0.00
2023-05-15T02:11:10.008Z,0.00
2023-05-15T02:12:10.032Z,0.00
2023-05-15T02:13:10.052Z,0.00
2023-05-15T02:14:10.081Z,0.00
2023-05-15T02:15:10.105Z,0.00
2023-05-15T02:16:10.150Z,0.00
2023-05-15T02:17:10.162Z,0.00
2023-05-15T02:18:10.176Z,0.00
2023-05-15T02:19:10.276Z,0.00
2023-05-15T02:20:10.219Z,0.00
2023-05-15T02:21:10.244Z,0.00
2023-05-15T02:22:10.271Z,0.00
2023-05-15T02:23:10.294Z,0.00
2023-05-15T02:24:10.317Z,0.00
2023-05-15T02:25:10.340Z,0.00
2023-05-15T02:26:10.364Z,0.00
2023-05-15T02:27:10.386Z,0.00
2023-05-15T02:28:10.408Z,0.00
2023-05-15T02:29:10.431Z,0.00
2023-05-15T02:30:10.459Z,0.00
2023-05-15T02:31:10.478Z,0.00
2023-05-15T02:32:10.521Z,0.00
2023-05-15T02:33:10.527Z,0.00
2023-05-15T02:34:10.551Z,0.00
2023-05-15T02:35:10.593Z,0.00
2023-05-15T02:36:10.595Z,0.00
2023-05-15T02:37:10.618Z,0.00
2023-05-15T02:38:10.642Z,0.00
2023-05-15T02:39:10.666Z,0.00
2023-05-15T02:40:10.684Z,0.00
2023-05-15T02:41:10.713Z,0.00
2023-05-15T02:42:10.736Z,0.00
2023-05-15T02:43:10.758Z,0.00
2023-05-15T02:44:10.783Z,0.00
2023-05-15T02:45:10.839Z,0.00
2023-05-15T02:46:10.890Z,0.00
2023-05-15T02:47:10.849Z,0.00
2023-05-15T02:48:10.917Z,0.00
2023-05-15T02:49:10.897Z,0.00
2023-05-15T02:50:10.930Z,0.00
2023-05-15T02:51:10.946Z,0.00
2023-05-15T02:52:10.966Z,0.00
2023-05-15T02:53:11.000Z,0.00
2023-05-15T02:54:11.011Z,0.00
2023-05-15T02:55:11.046Z,0.00
2023-05-15T02:56:11.065Z,4.00
2023-05-15T02:57:11.094Z,4.00
2023-05-15T02:58:11.102Z,4.00
2023-05-15T02:59:11.120Z,0.00
2023-05-15T03:00:11.147Z,4.00
2023-05-15T03:01:11.184Z,4.00
2023-05-15T03:02:11.191Z,4.00
2023-05-15T03:03:11.241Z,4.00
2023-05-15T03:04:11.286Z,8.00
2023-05-15T03:05:11.282Z,8.00
2023-05-15T03:06:11.284Z,8.00
2023-05-15T03:07:11.313Z,12.00
2023-05-15T03:08:11.335Z,12.00
2023-05-15T03:09:11.366Z,12.00
2023-05-15T03:10:11.377Z,12.00
2023-05-15T03:11:11.407Z,16.00
2023-05-15T03:12:11.420Z,16.00
2023-05-15T03:13:11.452Z,24.00
2023-05-15T03:14:11.470Z,24.00
2023-05-15T03:15:11.509Z,28.00
2023-05-15T03:16:11.516Z,32.00
2023-05-15T03:17:11.647Z,36.00
2023-05-15T03:18:11.654Z,40.00
2023-05-15T03:19:11.636Z,48.00
2023-05-15T03:20:11.610Z,52.00
2023-05-15T03:21:11.632Z,56.00
2023-05-15T03:22:11.658Z,64.00
2023-05-15T03:23:11.684Z,72.00
2023-05-15T03:24:11.710Z,80.00
2023-05-15T03:25:11.742Z,88.00
2023-05-15T03:26:11.749Z,100.00
2023-05-15T03:27:11.775Z,108.00
2023-05-15T03:28:11.789Z,120.00
2023-05-15T03:29:11.826Z,132.00
2023-05-15T03:30:11.855Z,148.00
2023-05-15T03:31:11.907Z,160.00
2023-05-15T03:32:11.894Z,176.00
2023-05-15T03:33:11.911Z,188.00
2023-05-15T03:34:11.929Z,208.00
2023-05-15T03:35:11.954Z,224.00
2023-05-15T03:36:11.976Z,244.00
2023-05-15T03:37:12.000Z,264.00
2023-05-15T03:38:12.023Z,284.00
2023-05-15T03:39:12.043Z,312.00
2023-05-15T03:40:12.067Z,336.00
2023-05-15T03:41:12.093Z,360.00
2023-05-15T03:42:12.114Z,384.00
2023-05-15T03:43:12.137Z,412.00
2023-05-15T03:44:12.160Z,440.00
2023-05-15T03:45:12.182Z,468.00
2023-05-15T03:46:12.788Z,500.00
2023-05-15T03:47:12.228Z,528.00
2023-05-15T03:48:12.251Z,560.00
2023-05-15T03:49:12.274Z,592.00
2023-05-15T03:50:12.307Z,628.00
2023-05-15T03:51:12.319Z,664.00
2023-05-15T03:52:12.341Z,708.00
2023-05-15T03:53:12.377Z,748.00
2023-05-15T03:54:12.392Z,792.00
2023-05-15T03:55:12.411Z,844.00
2023-05-15T03:56:12.436Z,892.00
2023-05-15T03:57:12.460Z,940.00
2023-05-15T03:58:12.481Z,992.00
2023-05-15T03:59:12.505Z,1040.00
2023-05-15T04:00:12.538Z,1096.00
2023-05-15T04:01:12.554Z,1152.00
2023-05-15T04:02:12.652Z,1212.00
2023-05-15T04:03:12.840Z,1264.00
2023-05-15T04:04:12.621Z,1316.00
2023-05-15T04:05:12.700Z,1380.00
2023-05-15T04:06:12.671Z,1440.00
2023-05-15T04:07:12.689Z,1504.00
2023-05-15T04:08:12.712Z,1572.00
2023-05-15T04:09:12.744Z,1644.00
2023-05-15T04:10:12.761Z,1708.00
2023-05-15T04:11:12.787Z,1776.00
2023-05-15T04:12:12.808Z,1852.00
2023-05-15T04:13:12.829Z,1932.00
2023-05-15T04:14:12.855Z,2016.00
2023-05-15T04:15:12.884Z,2088.00
2023-05-15T04:16:12.944Z,2152.00
2023-05-15T04:17:12.929Z,2220.00
2023-05-15T04:18:12.960Z,2304.00
2023-05-15T04:19:13.086Z,2400.00
2023-05-15T04:20:12.998Z,2500.00
2023-05-15T04:21:13.018Z,2608.00
2023-05-15T04:22:13.045Z,2708.00
2023-05-15T04:23:13.067Z,2800.00
2023-05-15T04:24:13.090Z,2880.00
2023-05-15T04:25:13.115Z,2952.00
2023-05-15T04:26:13.139Z,3016.00
2023-05-15T04:27:13.252Z,3072.00
2023-05-15T04:28:13.201Z,3172.00
2023-05-15T04:29:13.230Z,3320.00
2023-05-15T04:30:13.236Z,3488.00
2023-05-15T04:31:13.270Z,3636.00
2023-05-15T04:32:13.337Z,3784.00
2023-05-15T04:33:13.355Z,3912.00
2023-05-15T04:34:13.334Z,4032.00
2023-05-15T04:35:13.431Z,4136.00
2023-05-15T04:36:13.385Z,4232.00
2023-05-15T04:37:13.404Z,4300.00
2023-05-15T04:38:13.434Z,4348.00
2023-05-15T04:39:13.454Z,4456.00
2023-05-15T04:40:13.483Z,4648.00
2023-05-15T04:41:13.508Z,4824.00
2023-05-15T04:42:13.536Z,4916.00
2023-05-15T04:43:13.563Z,5016.00
2023-05-15T04:44:13.594Z,5116.00
2023-05-15T04:45:13.617Z,5224.00
2023-05-15T04:46:13.695Z,5336.00
2023-05-15T04:47:13.660Z,5472.00
2023-05-15T04:48:13.686Z,5604.00
2023-05-15T04:49:13.712Z,5760.00
2023-05-15T04:50:13.736Z,5956.00
2023-05-15T04:51:13.769Z,6164.00
2023-05-15T04:52:13.785Z,6392.00
2023-05-15T04:53:13.815Z,6668.00
2023-05-15T04:54:13.840Z,6940.00
2023-05-15T04:55:13.865Z,7340.00
2023-05-15T04:56:13.898Z,7924.00
2023-05-15T04:57:13.917Z,8656.00
2023-05-15T04:58:13.947Z,9636.00
2023-05-15T04:59:13.978Z,10792.00
2023-05-15T05:00:14.005Z,11436.00
2023-05-15T05:01:14.074Z,11900.00
2023-05-15T05:02:14.064Z,12416.00
2023-05-15T05:03:14.202Z,12192.00
2023-05-15T05:04:14.204Z,11228.00
2023-05-15T05:05:14.136Z,10428.00
2023-05-15T05:06:14.161Z,9828.00
2023-05-15T05:07:14.189Z,9484.00
2023-05-15T05:08:14.223Z,9164.00
2023-05-15T05:09:14.241Z,8900.00
2023-05-15T05:10:14.266Z,8760.00
2023-05-15T05:11:14.311Z,8648.00
2023-05-15T05:12:14.325Z,8560.00
2023-05-15T05:13:14.352Z,8556.00
2023-05-15T05:14:14.382Z,8600.00
2023-05-15T05:15:14.408Z,8476.00
2023-05-15T05:16:14.469Z,7296.00
2023-05-15T05:17:14.465Z,6808.00
2023-05-15T05:18:14.494Z,7136.00
2023-05-15T05:19:14.574Z,7052.00
2023-05-15T05:20:14.553Z,7300.00
2023-05-15T05:21:14.574Z,7804.00
2023-05-15T05:22:14.604Z,7392.00
2023-05-15T05:23:14.625Z,6732.00
2023-05-15T05:24:14.659Z,6544.00
2023-05-15T05:25:14.686Z,6576.00
2023-05-15T05:26:14.713Z,6624.00
2023-05-15T05:27:14.742Z,6652.00
2023-05-15T05:28:14.767Z,6676.00
2023-05-15T05:29:14.800Z,6704.00
2023-05-15T05:30:14.836Z,6744.00
2023-05-15T05:31:14.875Z,6884.00
2023-05-15T05:32:14.899Z,6964.00
2023-05-15T05:33:14.905Z,7112.00
2023-05-15T05:34:14.932Z,7300.00
2023-05-15T05:35:14.959Z,6940.00
2023-05-15T05:36:14.983Z,6904.00
2023-05-15T05:37:15.016Z,6932.00
2023-05-15T05:38:15.038Z,7004.00
2023-05-15T05:39:15.074Z,7444.00
2023-05-15T05:40:15.095Z,8952.00
2023-05-15T05:41:15.160Z,10756.00
2023-05-15T05:42:15.148Z,12068.00
2023-05-15T05:43:15.173Z,13992.00
2023-05-15T05:44:15.194Z,15744.00
2023-05-15T05:45:15.227Z,16640.00
2023-05-15T05:46:15.262Z,17216.00
2023-05-15T05:47:15.305Z,18368.00
2023-05-15T05:48:15.310Z,18592.00
2023-05-15T05:49:15.330Z,18848.00
2023-05-15T05:50:15.362Z,19232.00
2023-05-15T05:51:15.392Z,19648.00
2023-05-15T05:52:15.417Z,20032.00
2023-05-15T05:53:15.445Z,21152.00
2023-05-15T05:54:15.475Z,22048.00
2023-05-15T05:55:15.516Z,21248.00
2023-05-15T05:56:15.538Z,21728.00
2023-05-15T05:57:15.555Z,21600.00
2023-05-15T05:58:24.837Z,23552.00
2023-05-15T05:59:15.617Z,33312.00
2023-05-15T06:00:15.649Z,23392.00
2023-05-15T06:01:15.671Z,23680.00
2023-05-15T06:02:15.774Z,23584.00
2023-05-15T06:03:15.785Z,23904.00
2023-05-15T06:04:17.576Z,24928.00
2023-05-15T06:05:15.838Z,25152.00
2023-05-15T06:06:15.819Z,25120.00
2023-05-15T06:07:15.862Z,24672.00
2023-05-15T06:08:15.885Z,24992.00
2023-05-15T06:09:15.912Z,25504.00
2023-05-15T06:10:15.945Z,25152.00
2023-05-15T06:11:15.970Z,25472.00
2023-05-15T06:12:16.029Z,25664.00
2023-05-15T06:13:16.030Z,26336.00
2023-05-15T06:14:16.247Z,27008.00
2023-05-15T06:15:16.091Z,27104.00
2023-05-15T06:16:16.127Z,28320.00
2023-05-15T06:17:16.198Z,28000.00
2023-05-15T06:18:16.189Z,27680.00
2023-05-15T06:19:16.285Z,28480.00
2023-05-15T06:20:16.254Z,28544.00
2023-05-15T06:21:16.283Z,28768.00
2023-05-15T06:22:16.332Z,29504.00
2023-05-15T06:23:16.343Z,29984.00
2023-05-15T06:24:16.376Z,30176.00
2023-05-15T06:25:16.413Z,30304.00
2023-05-15T06:26:16.441Z,30848.00
2023-05-15T06:27:16.470Z,31328.00
2023-05-15T06:28:16.494Z,31232.00
2023-05-15T06:29:16.531Z,31136.00
2023-05-15T06:30:16.668Z,31392.00
2023-05-15T06:31:16.641Z,32128.00
2023-05-15T06:32:16.625Z,32576.00
2023-05-15T06:33:16.694Z,32832.00
2023-05-15T06:34:16.697Z,33344.00
2023-05-15T06:35:16.765Z,33024.00
2023-05-15T06:36:16.766Z,34464.00
2023-05-15T06:37:16.788Z,34880.00
2023-05-15T06:38:16.822Z,34688.00
2023-05-15T06:39:16.854Z,35712.00
2023-05-15T06:40:16.884Z,36640.00
2023-05-15T06:41:16.916Z,37312.00
2023-05-15T06:42:16.950Z,37600.00
2023-05-15T06:43:17.022Z,37088.00
2023-05-15T06:44:17.025Z,36640.00
2023-05-15T06:45:17.050Z,37216.00
2023-05-15T06:46:17.257Z,36384.00
2023-05-15T06:47:17.146Z,35104.00
2023-05-15T06:48:17.187Z,35712.00
2023-05-15T06:49:17.185Z,35936.00
2023-05-15T06:50:17.240Z,36000.00
2023-05-15T06:51:17.253Z,36512.00
2023-05-15T06:52:17.288Z,36096.00
2023-05-15T06:53:17.320Z,35552.00
2023-05-15T06:54:17.353Z,33888.00
2023-05-15T06:55:17.389Z,34048.00
2023-05-15T06:56:17.421Z,32544.00
2023-05-15T06:57:17.454Z,31616.00
2023-05-15T06:58:17.495Z,20992.00
2023-05-15T06:59:17.530Z,34432.00
2023-05-15T07:00:17.564Z,33536.00
2023-05-15T07:01:17.627Z,32992.00
2023-05-15T07:02:17.808Z,33056.00
2023-05-15T07:03:17.660Z,34720.00
2023-05-15T07:04:17.728Z,35488.00
2023-05-15T07:05:17.730Z,35488.00
2023-05-15T07:06:17.763Z,36896.00
2023-05-15T07:07:17.794Z,37664.00
2023-05-15T07:08:17.825Z,37664.00
2023-05-15T07:09:17.859Z,32640.00
2023-05-15T07:10:17.924Z,20448.00
2023-05-15T07:11:17.933Z,11216.00
2023-05-15T07:12:17.967Z,10596.00
2023-05-15T07:13:17.996Z,10476.00
2023-05-15T07:14:18.030Z,10584.00
2023-05-15T07:15:18.073Z,10752.00
2023-05-15T07:16:18.097Z,10952.00
2023-05-15T07:17:18.145Z,11196.00
2023-05-15T07:18:18.217Z,11412.00
2023-05-15T07:19:18.274Z,11632.00
2023-05-15T07:20:18.239Z,11824.00
2023-05-15T07:21:18.259Z,12020.00
2023-05-15T07:22:18.291Z,12300.00
2023-05-15T07:23:18.324Z,12588.00
2023-05-15T07:24:18.357Z,12892.00
2023-05-15T07:25:18.388Z,13304.00
2023-05-15T07:26:28.740Z,13868.00
2023-05-15T07:27:18.449Z,14416.00
2023-05-15T07:28:18.479Z,14540.00
2023-05-15T07:29:18.508Z,14656.00
2023-05-15T07:30:18.563Z,14860.00
2023-05-15T07:31:18.628Z,14716.00
2023-05-15T07:32:18.724Z,14508.00
2023-05-15T07:33:18.633Z,14504.00
2023-05-15T07:34:18.694Z,14444.00
2023-05-15T07:35:18.694Z,14164.00
2023-05-15T07:36:18.727Z,13948.00
2023-05-15T07:37:18.755Z,13736.00
2023-05-15T07:38:18.861Z,13560.00
2023-05-15T07:39:18.871Z,13132.00
2023-05-15T07:40:18.848Z,13004.00
2023-05-15T07:41:18.875Z,13464.00
2023-05-15T07:42:18.916Z,14056.00
2023-05-15T07:43:18.948Z,14436.00
2023-05-15T07:44:18.993Z,14588.00
2023-05-15T07:45:19.049Z,14984.00
2023-05-15T07:46:19.096Z,15308.00
2023-05-15T07:47:19.050Z,15520.00
2023-05-15T07:48:19.083Z,15688.00
2023-05-15T07:49:19.113Z,15648.00
2023-05-15T07:50:19.184Z,15972.00
2023-05-15T07:51:19.180Z,16404.00
2023-05-15T07:52:19.356Z,16880.00
2023-05-15T07:53:19.226Z,16796.00
2023-05-15T07:54:19.269Z,16468.00
2023-05-15T07:55:19.301Z,16156.00
2023-05-15T07:56:19.320Z,15704.00
2023-05-15T07:57:19.350Z,14584.00
2023-05-15T07:58:19.379Z,13652.00
2023-05-15T07:59:19.436Z,12820.00
2023-05-15T08:00:19.434Z,12228.00
2023-05-15T08:01:19.468Z,12052.00
2023-05-15T08:02:19.539Z,11864.00
2023-05-15T08:03:19.768Z,11724.00
2023-05-15T08:04:19.646Z,11484.00
2023-05-15T08:05:19.589Z,11252.00
2023-05-15T08:06:19.863Z,11052.00
2023-05-15T08:07:19.659Z,10860.00
2023-05-15T08:08:19.673Z,10676.00
2023-05-15T08:09:19.718Z,10708.00
2023-05-15T08:10:19.734Z,11180.00
2023-05-15T08:11:19.765Z,12020.00
2023-05-15T08:12:19.788Z,12420.00
2023-05-15T08:13:19.826Z,12172.00
2023-05-15T08:14:19.887Z,11908.00
2023-05-15T08:15:19.894Z,11792.00
2023-05-15T08:16:19.934Z,11756.00
2023-05-15T08:17:19.943Z,11748.00
2023-05-15T08:18:19.967Z,11552.00
2023-05-15T08:19:20.110Z,11400.00
2023-05-15T08:20:20.049Z,11308.00
2023-05-15T08:21:20.050Z,11216.00
2023-05-15T08:22:20.082Z,11200.00
2023-05-15T08:23:20.110Z,11516.00
2023-05-15T08:24:20.141Z,11916.00
2023-05-15T08:25:20.172Z,12260.00
2023-05-15T08:26:20.192Z,12324.00
2023-05-15T08:27:20.225Z,12032.00
2023-05-15T08:28:20.252Z,12024.00
2023-05-15T08:29:20.284Z,12268.00
2023-05-15T08:30:20.307Z,12524.00
2023-05-15T08:31:20.414Z,12680.00
2023-05-15T08:32:20.364Z,12708.00
2023-05-15T08:33:20.399Z,12632.00
2023-05-15T08:34:20.425Z,12472.00
2023-05-15T08:35:20.548Z,12396.00
2023-05-15T08:36:20.585Z,12264.00
2023-05-15T08:37:20.508Z,12064.00
2023-05-15T08:38:20.540Z,11932.00
2023-05-15T08:39:20.568Z,11840.00
2023-05-15T08:40:25.669Z,11816.00
2023-05-15T08:41:32.693Z,11832.00
2023-05-15T08:42:20.657Z,11384.00
2023-05-15T08:43:20.680Z,11056.00
2023-05-15T08:44:20.729Z,10728.00
2023-05-15T08:45:20.737Z,10940.00
2023-05-15T08:46:20.854Z,10872.00
2023-05-15T08:47:20.813Z,11084.00
2023-05-15T08:48:20.870Z,11188.00
2023-05-15T08:49:20.855Z,11080.00
2023-05-15T08:50:20.895Z,11072.00
2023-05-15T08:51:20.908Z,11208.00
2023-05-15T08:52:20.936Z,11324.00
2023-05-15T08:53:20.976Z,11244.00
2023-05-15T08:54:21.012Z,11316.00
2023-05-15T08:55:21.022Z,11496.00
2023-05-15T08:56:21.047Z,11348.00
2023-05-15T08:57:21.084Z,11164.00
2023-05-15T08:58:21.110Z,11060.00
2023-05-15T08:59:21.148Z,11096.00
2023-05-15T09:00:21.179Z,11288.00
2023-05-15T09:01:21.203Z,11392.00
2023-05-15T09:02:21.223Z,11552.00
2023-05-15T09:03:21.331Z,12196.00
2023-05-15T09:04:21.279Z,13392.00
2023-05-15T09:05:21.319Z,13152.00
2023-05-15T09:06:21.347Z,13144.00
2023-05-15T09:07:21.365Z,12996.00
2023-05-15T09:08:21.390Z,13416.00
2023-05-15T09:09:21.421Z,14656.00
2023-05-15T09:10:21.461Z,16412.00
2023-05-15T09:11:21.478Z,15412.00
2023-05-15T09:12:21.506Z,15428.00
2023-05-15T09:13:21.545Z,16012.00
2023-05-15T09:14:28.722Z,14060.00
2023-05-15T09:16:26.159Z,14396.00
2023-05-15T09:17:25.664Z,14780.00
2023-05-15T09:19:18.713Z,16220.00
2023-05-15T09:20:18.639Z,16884.00
2023-05-15T09:22:23.247Z,17128.00
2023-05-15T09:23:22.699Z,16996.00
2023-05-15T09:25:27.009Z,16576.00
2023-05-15T09:26:26.754Z,16540.00
2023-05-15T09:28:20.748Z,16708.00
2023-05-15T09:29:20.206Z,16656.00
2023-05-15T09:30:20.235Z,16380.00
2023-05-15T09:31:20.297Z,16008.00
2023-05-15T09:32:20.387Z,16100.00
2023-05-15T09:33:20.325Z,16396.00
2023-05-15T09:34:20.351Z,16540.00
2023-05-15T09:35:20.383Z,16372.00
2023-05-15T09:36:20.416Z,15824.00
2023-05-15T09:37:20.449Z,14964.00
2023-05-15T09:38:20.469Z,14320.00
2023-05-15T09:39:20.512Z,13856.00
2023-05-15T09:40:20.546Z,13672.00
2023-05-15T09:41:20.572Z,13636.00
2023-05-15T09:42:20.639Z,13468.00
2023-05-15T09:43:20.622Z,13132.00
2023-05-15T09:44:21.771Z,12756.00
2023-05-15T09:45:20.680Z,12540.00
2023-05-15T09:46:20.829Z,12272.00
2023-05-15T09:47:20.917Z,11876.00
2023-05-15T09:48:20.809Z,11504.00
2023-05-15T09:49:20.816Z,11364.00
2023-05-15T09:50:20.850Z,11088.00
2023-05-15T09:51:20.863Z,10928.00
2023-05-15T09:52:20.965Z,10640.00
2023-05-15T09:53:21.341Z,10408.00
2023-05-15T09:54:20.969Z,10204.00
2023-05-15T09:55:20.993Z,9968.00
2023-05-15T09:56:21.031Z,9640.00
2023-05-15T09:57:21.074Z,9348.00
2023-05-15T09:58:21.080Z,9032.00
2023-05-15T09:59:21.097Z,8748.00
2023-05-15T10:00:21.135Z,8528.00
2023-05-15T10:01:21.221Z,8300.00
2023-05-15T10:02:21.239Z,8124.00
2023-05-15T10:03:21.247Z,7976.00
2023-05-15T10:04:21.245Z,7876.00
2023-05-15T10:05:28.647Z,7784.00
2023-05-15T10:06:21.316Z,7680.00
2023-05-15T10:07:21.328Z,7640.00
2023-05-15T10:08:21.361Z,7692.00
2023-05-15T10:09:21.387Z,7696.00
2023-05-15T10:10:21.415Z,7680.00
2023-05-15T10:11:21.447Z,7600.00
2023-05-15T10:12:21.514Z,7424.00
2023-05-15T10:13:21.604Z,7464.00
2023-05-15T10:14:21.528Z,7936.00
2023-05-15T10:15:21.559Z,8536.00
2023-05-15T10:16:21.641Z,8964.00
2023-05-15T10:17:21.657Z,9460.00
2023-05-15T10:18:21.680Z,9232.00
2023-05-15T10:19:21.779Z,8968.00
2023-05-15T10:20:21.701Z,8456.00
2023-05-15T10:21:21.722Z,7756.00
2023-05-15T10:22:21.759Z,7420.00
2023-05-15T10:23:21.783Z,7348.00
2023-05-15T10:24:21.812Z,7404.00
2023-05-15T10:25:21.838Z,7472.00
2023-05-15T10:26:21.873Z,7492.00
2023-05-15T10:27:21.899Z,7564.00
2023-05-15T10:28:22.712Z,7692.00
2023-05-15T10:29:21.956Z,7820.00
2023-05-15T10:30:22.016Z,7996.00
2023-05-15T10:31:22.055Z,8184.00
2023-05-15T10:32:22.084Z,8452.00
2023-05-15T10:33:22.070Z,8848.00
2023-05-15T10:34:22.103Z,9200.00
2023-05-15T10:35:22.121Z,9624.00
2023-05-15T10:36:22.155Z,9996.00
2023-05-15T10:37:22.173Z,10384.00
2023-05-15T10:38:22.208Z,11012.00
2023-05-15T10:39:22.273Z,11772.00
2023-05-15T10:40:22.264Z,11588.00
2023-05-15T10:41:22.309Z,10792.00
2023-05-15T10:42:22.330Z,9876.00
2023-05-15T10:43:22.368Z,9512.00
2023-05-15T10:44:22.380Z,9292.00
2023-05-15T10:45:22.405Z,9180.00
2023-05-15T10:46:22.484Z,9172.00
2023-05-15T10:47:22.533Z,9132.00
2023-05-15T10:48:22.491Z,9304.00
2023-05-15T10:49:22.516Z,9544.00
2023-05-15T10:50:22.552Z,9724.00
2023-05-15T10:51:22.574Z,9812.00
2023-05-15T10:52:22.616Z,9772.00
2023-05-15T10:53:22.628Z,9744.00
2023-05-15T10:54:22.679Z,9796.00
2023-05-15T10:55:22.712Z,9840.00
2023-05-15T10:56:22.759Z,9960.00
2023-05-15T10:57:22.744Z,10036.00
2023-05-15T10:58:22.781Z,10056.00
2023-05-15T10:59:22.805Z,9976.00
2023-05-15T11:00:22.975Z,9968.00
2023-05-15T11:01:22.875Z,9984.00
2023-05-15T11:02:22.889Z,9916.00
2023-05-15T11:03:22.936Z,9872.00
2023-05-15T11:04:23.015Z,9800.00
2023-05-15T11:05:22.966Z,9664.00
2023-05-15T11:06:23.001Z,9424.00
2023-05-15T11:07:23.028Z,9252.00
2023-05-15T11:08:23.064Z,9204.00
2023-05-15T11:09:23.297Z,9208.00
2023-05-15T11:10:23.219Z,9036.00
2023-05-15T11:11:23.139Z,8780.00
2023-05-15T11:12:23.184Z,8520.00
2023-05-15T11:13:23.209Z,8332.00
2023-05-15T11:14:23.224Z,8284.00
2023-05-15T11:15:23.279Z,8240.00
2023-05-15T11:16:23.315Z,8288.00
2023-05-15T11:17:23.322Z,8264.00
2023-05-15T11:18:23.343Z,8008.00
2023-05-15T11:19:23.369Z,7680.00
2023-05-15T11:20:23.506Z,7504.00
2023-05-15T11:21:23.440Z,7308.00
2023-05-15T11:22:23.537Z,7396.00
2023-05-15T11:23:23.495Z,7544.00
2023-05-15T11:24:23.513Z,7584.00
2023-05-15T11:25:23.538Z,7552.00
2023-05-15T11:26:23.584Z,7496.00
2023-05-15T11:27:23.594Z,7532.00
2023-05-15T11:28:23.636Z,7644.00
2023-05-15T11:29:23.665Z,7640.00
2023-05-15T11:30:23.711Z,7556.00
2023-05-15T11:31:23.775Z,7524.00
2023-05-15T11:32:23.745Z,7548.00
2023-05-15T11:33:23.784Z,7508.00
2023-05-15T11:34:23.796Z,7300.00
2023-05-15T11:35:23.862Z,7040.00
2023-05-15T11:36:23.868Z,6996.00
2023-05-15T11:37:23.883Z,7012.00
2023-05-15T11:38:23.933Z,7012.00
2023-05-15T11:39:23.953Z,6804.00
2023-05-15T11:40:24.141Z,6532.00
2023-05-15T11:41:24.001Z,6264.00
2023-05-15T11:42:24.031Z,6024.00
2023-05-15T11:43:24.058Z,5956.00
2023-05-15T11:44:24.089Z,5920.00
2023-05-15T11:45:24.119Z,5936.00
2023-05-15T11:46:24.148Z,6004.00
2023-05-15T11:47:24.173Z,6012.00
2023-05-15T11:48:24.209Z,6000.00
2023-05-15T11:49:24.238Z,5944.00
2023-05-15T11:50:24.384Z,5868.00
2023-05-15T11:51:24.292Z,5776.00
2023-05-15T11:52:24.315Z,5708.00
2023-05-15T11:53:24.348Z,5684.00
2023-05-15T11:54:24.379Z,5704.00
2023-05-15T11:55:24.437Z,5720.00
2023-05-15T11:56:24.502Z,5764.00
2023-05-15T11:57:24.464Z,5784.00
2023-05-15T11:58:24.488Z,5788.00
2023-05-15T11:59:24.521Z,5828.00
2023-05-15T12:00:24.794Z,5912.00
2023-05-15T12:01:24.615Z,5984.00
2023-05-15T12:02:24.649Z,5976.00
2023-05-15T12:03:24.738Z,5920.00
2023-05-15T12:04:24.872Z,5856.00
2023-05-15T12:05:24.705Z,5784.00
2023-05-15T12:06:24.726Z,5760.00
2023-05-15T12:07:24.754Z,5748.00
2023-05-15T12:08:24.780Z,5752.00
2023-05-15T12:09:24.808Z,5712.00
2023-05-15T12:10:25.148Z,5700.00
2023-05-15T12:11:25.378Z,5692.00
2023-05-15T12:12:24.896Z,5624.00
2023-05-15T12:13:24.926Z,5584.00
2023-05-15T12:14:24.953Z,5600.00
2023-05-15T12:15:24.981Z,5580.00
2023-05-15T12:16:25.093Z,5544.00
2023-05-15T12:17:25.069Z,5460.00
2023-05-15T12:18:25.073Z,5444.00
2023-05-15T12:19:25.118Z,5440.00
2023-05-15T12:20:25.359Z,5420.00
2023-05-15T12:21:25.172Z,5428.00